Time;durP1;ratioP1;P1;durP2;ratioP2;P2;SDS_P1;SDS_P2;PMS_P1;PMS_P2;Temp;Humidity;BMP_temperature;BMP_pressure;BME280_temperature;BME280_humidity;BME280_pressure;Samples;Min_cycle;Max_cycle;Signal;HPM_P1;HPM_P2
2023/01/17 00:01:56;;;;;;;12.25;1.50;;;;;;;4.27;100.00;98005.16;4973357;28;20099;-79
2023/01/17 00:09:53;;;;;;;12.52;1.02;;;;;;;4.45;100.00;98032.25;4960684;28;20043;-79
2023/01/17 00:12:23;;;;;;;11.75;1.35;;;;;;;4.33;100.00;98028.06;4953836;28;20073;-79
2023/01/17 00:14:51;;;;;;;6.20;1.17;;;;;;;4.38;100.00;98039.31;4945355;28;20039;-79
2023/01/17 00:17:17;;;;;;;8.05;1.67;;;;;;;4.19;100.00;98038.41;4941034;29;20038;-80
2023/01/17 01:35:10;;;;;;;1.95;0.40;;;;;;;3.04;100.00;98207.06;4944046;29;20217;-79
2023/01/17 01:37:36;;;;;;;0.30;0.30;;;;;;;2.88;100.00;98214.84;4943493;28;20133;-79
2023/01/17 01:40:01;;;;;;;0.73;0.40;;;;;;;2.92;100.00;98219.00;4937963;29;20041;-79
2023/01/17 01:42:26;;;;;;;0.25;0.20;;;;;;;2.94;100.00;98219.72;4958968;28;20052;-78
2023/01/17 01:44:53;;;;;;;2.83;0.30;;;;;;;2.82;100.00;98224.38;4954306;29;20043;-79
2023/01/17 01:47:33;;;;;;;0.85;0.30;;;;;;;2.88;100.00;98215.69;4961427;28;20035;-80
2023/01/17 01:50:00;;;;;;;1.95;0.30;;;;;;;3.00;100.00;98223.69;4923100;29;20471;-79
2023/01/17 01:52:30;;;;;;;1.92;0.40;;;;;;;3.04;100.00;98239.50;4922612;28;20042;-80
2023/01/17 01:55:37;;;;;;;4.00;0.60;;;;;;;3.17;100.00;98241.94;4955083;28;20206;-79
2023/01/17 01:58:11;;;;;;;0.60;0.40;;;;;;;3.17;100.00;98233.84;4951501;28;20055;-79
2023/01/17 02:00:39;;;;;;;1.20;0.50;;;;;;;3.24;100.00;98253.06;4938941;29;20067;-79
2023/01/17 02:03:29;;;;;;;2.05;0.55;;;;;;;3.33;100.00;98257.63;4937886;28;20039;-80
2023/01/17 02:06:00;;;;;;;4.18;0.80;;;;;;;3.34;100.00;98258.47;4939630;29;20044;-79
2023/01/17 02:08:25;;;;;;;1.25;1.10;;;;;;;3.40;100.00;98257.94;4963985;28;20039;-79
2023/01/17 02:10:51;;;;;;;2.85;1.30;;;;;;;3.42;100.00;98264.88;4922276;29;20391;-80
2023/01/17 02:13:19;;;;;;;8.18;2.08;;;;;;;3.43;100.00;98255.78;4938728;29;20043;-79
2023/01/17 02:16:03;;;;;;;1.75;1.27;;;;;;;3.27;100.00;98267.16;4935368;29;20066;-80
2023/01/17 02:18:56;;;;;;;1.83;1.67;;;;;;;3.45;100.00;98275.44;4922926;29;20043;-80
2023/01/17 02:21:26;;;;;;;3.35;2.05;;;;;;;3.33;100.00;98273.88;4947875;28;20058;-80
2023/01/17 02:24:07;;;;;;;3.40;2.25;;;;;;;3.19;100.00;98282.38;4948433;29;20044;-79
2023/01/17 02:27:02;;;;;;;2.50;2.30;;;;;;;3.09;100.00;98287.75;4956659;28;20383;-80
2023/01/17 02:30:05;;;;;;;2.95;2.63;;;;;;;3.04;100.00;98284.59;4934315;28;20403;-80
2023/01/17 02:32:52;;;;;;;7.37;3.10;;;;;;;3.01;100.00;98283.03;4942023;28;20391;-80
2023/01/17 02:35:27;;;;;;;3.17;2.97;;;;;;;3.12;100.00;98277.50;4953567;28;20035;-80
2023/01/17 02:38:05;;;;;;;5.10;3.20;;;;;;;3.26;100.00;98275.41;4953090;28;20031;-79
2023/01/17 02:40:39;;;;;;;4.00;2.75;;;;;;;3.21;100.00;98274.97;4955509;28;20038;-79
2023/01/17 02:43:16;;;;;;;8.98;3.03;;;;;;;3.07;100.00;98279.78;4938824;28;20027;-79
2023/01/17 02:45:42;;;;;;;3.53;3.17;;;;;;;3.05;100.00;98280.88;4936774;29;20123;-79
2023/01/17 02:48:10;;;;;;;4.60;3.38;;;;;;;3.09;100.00;98287.75;4952174;29;20035;-79
2023/01/17 02:51:01;;;;;;;4.00;3.13;;;;;;;3.07;100.00;98303.25;4955211;28;20512;-80
2023/01/17 02:53:41;;;;;;;9.52;3.05;;;;;;;3.01;100.00;98304.66;4958129;28;20039;-79
2023/01/17 02:56:41;;;;;;;12.38;3.38;;;;;;;3.05;100.00;98313.31;4941210;29;20031;-79
2023/01/17 02:59:25;;;;;;;5.55;3.53;;;;;;;3.18;100.00;98302.28;4926899;29;20069;-79
2023/01/17 03:02:03;;;;;;;7.18;2.75;;;;;;;3.31;100.00;98314.56;4937855;28;20121;-80
2023/01/17 03:04:47;;;;;;;5.53;1.88;;;;;;;3.23;100.00;98306.28;4922174;29;20047;-79
2023/01/17 03:07:16;;;;;;;3.65;1.92;;;;;;;3.22;100.00;98304.56;4954626;29;20035;-79
2023/01/17 03:09:52;;;;;;;3.92;1.95;;;;;;;3.07;100.00;98316.78;4938658;29;20442;-80
2023/01/17 03:12:18;;;;;;;3.95;1.05;;;;;;;2.93;100.00;98313.44;4960643;28;20118;-80
2023/01/17 03:14:44;;;;;;;3.70;1.60;;;;;;;3.09;100.00;98301.25;4927314;29;20073;-80
2023/01/17 03:17:09;;;;;;;2.20;0.70;;;;;;;2.80;100.00;98287.63;4957985;28;20122;-79
2023/01/17 03:19:34;;;;;;;3.33;1.00;;;;;;;3.05;100.00;98308.81;4927314;29;20174;-80
2023/01/17 03:22:00;;;;;;;0.45;0.40;;;;;;;2.79;100.00;98302.13;4908597;28;20030;-80
2023/01/17 03:24:25;;;;;;;2.00;0.60;;;;;;;2.82;100.00;98305.44;4966510;28;20059;-80
2023/01/17 03:26:51;;;;;;;5.38;0.82;;;;;;;2.58;100.00;98306.59;4951480;28;20042;-80
2023/01/17 03:29:16;;;;;;;2.72;0.50;;;;;;;2.45;100.00;98303.25;4945793;29;20283;-79
2023/01/17 03:31:42;;;;;;;1.90;0.68;;;;;;;2.63;100.00;98308.91;4926827;29;20043;-80
2023/01/17 03:34:07;;;;;;;4.63;0.57;;;;;;;2.44;100.00;98322.28;4934387;29;20032;-79
2023/01/17 03:36:33;;;;;;;3.95;0.90;;;;;;;2.34;100.00;98317.69;4925835;29;20394;-79
2023/01/17 03:38:58;;;;;;;6.80;1.25;;;;;;;2.31;100.00;98320.66;4926399;29;20402;-79
2023/01/17 03:41:24;;;;;;;2.97;0.55;;;;;;;2.31;100.00;98336.00;4933973;28;20494;-79
2023/01/17 03:43:50;;;;;;;7.80;0.70;;;;;;;2.25;100.00;98326.59;4937138;29;20440;-80
2023/01/17 03:46:22;;;;;;;0.57;0.30;;;;;;;2.30;100.00;98339.69;4941088;28;20031;-80
2023/01/17 03:48:48;;;;;;;1.83;0.40;;;;;;;2.30;100.00;98321.66;4959477;29;20035;-82
2023/01/17 03:51:13;;;;;;;10.05;0.95;;;;;;;2.20;100.00;98334.22;4963260;28;20043;-79
2023/01/17 03:53:38;;;;;;;3.67;0.60;;;;;;;2.22;100.00;98343.03;4934982;28;20074;-79
2023/01/17 03:56:04;;;;;;;4.65;0.85;;;;;;;2.04;100.00;98328.44;4925798;29;20067;-79
2023/01/17 03:58:29;;;;;;;5.70;1.35;;;;;;;2.12;100.00;98340.28;4916704;29;20050;-79
2023/01/17 04:00:55;;;;;;;2.90;1.23;;;;;;;2.09;100.00;98347.78;4948290;28;20042;-79
2023/01/17 04:03:21;;;;;;;6.13;1.50;;;;;;;2.05;100.00;98349.00;4921022;29;20039;-79
2023/01/17 04:05:46;;;;;;;5.28;1.90;;;;;;;2.13;100.00;98351.91;4937792;29;20044;-79
2023/01/17 04:08:12;;;;;;;5.10;1.10;;;;;;;2.11;100.00;98353.91;4940915;29;20043;-79
2023/01/17 04:10:37;;;;;;;4.45;1.50;;;;;;;2.09;100.00;98356.72;4937709;29;20039;-79
2023/01/17 04:13:03;;;;;;;5.80;1.45;;;;;;;2.05;100.00;98354.41;4957115;28;20090;-79
2023/01/17 04:15:28;;;;;;;4.55;1.45;;;;;;;2.10;100.00;98352.16;4958195;28;20039;-80
2023/01/17 04:17:54;;;;;;;6.82;1.80;;;;;;;2.17;100.00;98361.47;4963787;28;20390;-80
2023/01/17 04:20:40;;;;;;;2.08;1.45;;;;;;;2.07;100.00;98356.00;4925232;29;20063;-79
2023/01/17 04:23:06;;;;;;;6.90;1.90;;;;;;;2.02;100.00;98347.44;4961127;28;20043;-79
2023/01/17 04:25:31;;;;;;;6.65;2.10;;;;;;;1.99;100.00;98340.44;4963644;28;20461;-79
2023/01/17 04:27:59;;;;;;;5.13;1.33;;;;;;;1.81;100.00;98342.84;4935174;29;20042;-79
2023/01/17 04:30:25;;;;;;;7.03;1.63;;;;;;;1.87;100.00;98343.31;4940643;28;20031;-79
2023/01/17 04:32:51;;;;;;;6.60;1.60;;;;;;;1.67;100.00;98329.66;4937051;28;20058;-79
2023/01/17 04:35:16;;;;;;;6.57;1.88;;;;;;;1.82;100.00;98335.59;4955593;28;20545;-79
2023/01/17 04:37:42;;;;;;;2.88;1.45;;;;;;;1.76;100.00;98330.75;4928315;28;20529;-79
2023/01/17 04:40:09;;;;;;;4.90;1.33;;;;;;;1.96;100.00;98345.25;4957077;28;20123;-79
2023/01/17 04:42:34;;;;;;;9.82;1.70;;;;;;;1.96;100.00;98354.19;4939073;29;20036;-79
2023/01/17 04:44:59;;;;;;;7.70;1.52;;;;;;;2.13;100.00;98351.91;4939576;28;20054;-79
2023/01/17 04:47:25;;;;;;;3.95;1.40;;;;;;;2.06;100.00;98340.78;4924134;28;20074;-79
2023/01/17 04:49:51;;;;;;;4.32;1.58;;;;;;;1.97;100.00;98350.53;4945039;29;20035;-79
2023/01/17 04:52:19;;;;;;;2.80;1.48;;;;;;;1.77;100.00;98336.03;4924127;29;20039;-79
2023/01/17 04:54:48;;;;;;;4.70;1.98;;;;;;;1.75;100.00;98350.59;4929404;29;20027;-79
2023/01/17 04:57:17;;;;;;;4.60;1.73;;;;;;;1.99;100.00;98355.78;4939730;29;20198;-79
2023/01/17 04:59:44;;;;;;;7.82;1.70;;;;;;;2.00;100.00;98361.06;4948501;28;20114;-80
2023/01/17 05:02:09;;;;;;;8.82;2.13;;;;;;;1.92;100.00;98352.75;4945931;28;20023;-80
2023/01/17 05:04:35;;;;;;;7.53;2.10;;;;;;;1.99;100.00;98366.59;4930048;29;20043;-80
2023/01/17 05:07:00;;;;;;;3.67;2.42;;;;;;;1.97;100.00;98366.72;4939635;29;20035;-79
2023/01/17 05:09:25;;;;;;;8.05;2.55;;;;;;;1.98;100.00;98367.56;4924070;29;20108;-78
2023/01/17 05:11:51;;;;;;;11.50;3.00;;;;;;;1.97;100.00;98368.56;4926720;29;20063;-78
2023/01/17 05:14:16;;;;;;;4.88;2.50;;;;;;;2.00;100.00;98362.88;4940747;29;20082;-78
2023/01/17 05:16:42;;;;;;;5.25;3.13;;;;;;;1.92;100.00;98363.56;4936945;28;20039;-79
2023/01/17 05:19:07;;;;;;;6.65;3.75;;;;;;;1.91;100.00;98361.81;4936465;29;20426;-78
2023/01/17 05:21:33;;;;;;;8.40;3.95;;;;;;;1.84;100.00;98357.94;4939784;29;20122;-79
2023/01/17 05:23:58;;;;;;;6.75;4.20;;;;;;;1.84;100.00;98366.88;4949516;28;20058;-80
2023/01/17 05:26:24;;;;;;;11.55;4.28;;;;;;;1.83;100.00;98367.00;4962396;28;20045;-79
2023/01/17 05:28:49;;;;;;;12.02;5.97;;;;;;;2.13;100.00;98376.19;4947654;28;20091;-79
2023/01/17 05:31:15;;;;;;;20.25;8.25;;;;;;;2.02;100.00;98375.28;4942001;29;20051;-78
2023/01/17 05:33:41;;;;;;;14.85;6.90;;;;;;;1.78;100.00;98370.09;4952646;29;20382;-78
2023/01/17 05:36:07;;;;;;;17.92;9.32;;;;;;;1.72;100.00;98380.53;4924267;28;20035;-78
2023/01/17 05:38:32;;;;;;;27.65;10.93;;;;;;;1.89;100.00;98384.53;4941762;28;20043;-76
2023/01/17 05:40:59;;;;;;;23.98;10.75;;;;;;;1.79;100.00;98389.84;4937982;29;20027;-77
2023/01/17 05:43:24;;;;;;;24.25;12.23;;;;;;;1.84;100.00;98388.47;4923704;28;20081;-77
2023/01/17 05:45:50;;;;;;;20.98;10.85;;;;;;;1.83;100.00;98381.34;4937445;29;20135;-77
2023/01/17 05:48:15;;;;;;;30.45;13.10;;;;;;;1.92;100.00;98392.34;4921936;29;20122;-78
2023/01/17 05:50:40;;;;;;;27.75;11.93;;;;;;;1.94;100.00;98382.31;4936249;29;20429;-77
2023/01/17 05:53:10;;;;;;;37.70;13.77;;;;;;;1.92;100.00;98382.44;4937283;29;20035;-77
2023/01/17 05:55:36;;;;;;;36.80;13.80;;;;;;;2.07;100.00;98383.00;4938322;29;20019;-79
2023/01/17 05:58:03;;;;;;;33.85;12.50;;;;;;;2.12;100.00;98386.16;4939869;29;21073;-77
2023/01/17 06:00:29;;;;;;;28.50;11.52;;;;;;;2.12;100.00;98393.41;4929537;29;20044;-78
2023/01/17 06:02:56;;;;;;;36.33;11.90;;;;;;;1.92;100.00;98395.06;4938253;29;20046;-78
2023/01/17 06:05:23;;;;;;;23.67;10.50;;;;;;;1.83;100.00;98392.13;4941114;28;20569;-78
2023/01/17 06:07:48;;;;;;;33.72;13.43;;;;;;;1.85;100.00;98397.41;4922777;29;20114;-78
2023/01/17 06:10:15;;;;;;;28.58;11.75;;;;;;;1.75;100.00;98391.91;4944419;28;20093;-78
2023/01/17 06:12:42;;;;;;;23.45;9.13;;;;;;;1.74;100.00;98389.34;4951277;28;20027;-78
2023/01/17 06:15:08;;;;;;;23.75;8.85;;;;;;;1.80;100.00;98402.31;4937731;29;20038;-79
2023/01/17 06:17:35;;;;;;;19.38;9.85;;;;;;;1.63;100.00;98396.50;4938874;29;20133;-79
2023/01/17 06:20:01;;;;;;;26.50;10.30;;;;;;;1.63;100.00;98390.25;4954376;28;20038;-78
2023/01/17 06:22:26;;;;;;;27.35;8.52;;;;;;;1.55;100.00;98390.03;4956315;29;20039;-79
2023/01/17 06:24:51;;;;;;;19.05;8.93;;;;;;;1.53;100.00;98395.53;4916605;28;20405;-79
2023/01/17 06:27:17;;;;;;;19.60;8.13;;;;;;;1.43;100.00;98398.13;4918115;28;20035;-79
2023/01/17 06:29:42;;;;;;;27.02;8.50;;;;;;;1.36;100.00;98398.75;4973737;28;20033;-80
2023/01/17 06:32:08;;;;;;;19.52;9.45;;;;;;;1.51;100.00;98397.50;4950890;29;20046;-78
2023/01/17 06:34:34;;;;;;;19.98;10.68;;;;;;;1.41;100.00;98408.19;4939081;29;20031;-78
2023/01/17 06:36:59;;;;;;;19.23;9.10;;;;;;;1.39;100.00;98414.66;4952090;28;20094;-79
2023/01/17 06:39:25;;;;;;;28.65;10.43;;;;;;;1.29;100.00;98414.56;4922709;29;20486;-79
2023/01/17 06:41:50;;;;;;;21.02;8.95;;;;;;;1.38;100.00;98418.38;4941022;29;20032;-79
2023/01/17 06:44:16;;;;;;;20.20;9.77;;;;;;;1.38;100.00;98421.91;4922621;29;20083;-79
2023/01/17 06:46:43;;;;;;;25.63;10.20;;;;;;;1.41;100.00;98418.09;4936081;29;20031;-78
2023/01/17 06:49:09;;;;;;;20.58;10.02;;;;;;;1.41;100.00;98420.78;4938636;29;20497;-78
2023/01/17 06:51:34;;;;;;;28.10;9.88;;;;;;;1.34;100.00;98423.13;4926546;29;20035;-78
2023/01/17 06:54:00;;;;;;;33.85;10.18;;;;;;;1.41;100.00;98423.47;4921551;29;20031;-78
2023/01/17 06:56:25;;;;;;;29.77;8.32;;;;;;;1.13;100.00;98420.31;4944020;28;20387;-78
2023/01/17 06:58:51;;;;;;;23.88;10.55;;;;;;;1.26;100.00;98420.19;4943207;29;20042;-78
2023/01/17 07:01:17;;;;;;;25.63;10.55;;;;;;;1.05;100.00;98402.06;4945613;28;21366;-78
2023/01/17 07:03:43;;;;;;;27.75;11.35;;;;;;;1.21;100.00;98411.63;4946016;28;20073;-78
2023/01/17 07:06:09;;;;;;;31.05;10.55;;;;;;;1.28;100.00;98408.31;4957472;28;20070;-78
2023/01/17 07:08:35;;;;;;;18.73;8.98;;;;;;;1.31;100.00;98415.28;4944408;29;20070;-78
2023/01/17 07:11:04;;;;;;;19.73;10.43;;;;;;;1.26;100.00;98412.97;4954729;28;20039;-79
2023/01/17 07:13:29;;;;;;;31.83;11.80;;;;;;;1.44;100.00;98420.53;4976571;28;20062;-79
2023/01/17 07:15:58;;;;;;;26.42;9.98;;;;;;;1.29;100.00;98419.94;4963891;28;20035;-78
2023/01/17 07:18:24;;;;;;;34.30;11.25;;;;;;;1.22;100.00;98414.19;4944997;29;20063;-78
2023/01/17 07:20:49;;;;;;;27.42;10.23;;;;;;;1.25;100.00;98429.28;4940440;29;20501;-78
2023/01/17 07:23:16;;;;;;;22.80;10.68;;;;;;;1.13;100.00;98431.09;4950074;28;20031;-78
2023/01/17 07:25:41;;;;;;;25.75;11.30;;;;;;;1.29;100.00;98425.34;4969210;28;20439;-79
2023/01/17 07:28:07;;;;;;;21.23;9.95;;;;;;;1.10;100.00;98424.13;4931063;29;20046;-79
2023/01/17 07:30:32;;;;;;;28.95;10.63;;;;;;;1.09;100.00;98422.41;4931050;29;20039;-77
2023/01/17 07:32:58;;;;;;;27.90;10.70;;;;;;;1.06;100.00;98424.47;4934577;29;20058;-78
2023/01/17 07:35:26;;;;;;;31.95;12.20;;;;;;;1.15;100.00;98433.66;4967341;28;20464;-78
2023/01/17 07:37:53;;;;;;;23.35;8.13;;;;;;;1.05;100.00;98431.72;4955413;28;20042;-77
2023/01/17 07:40:20;;;;;;;28.40;11.68;;;;;;;1.08;100.00;98427.91;4968228;28;20066;-78
2023/01/17 07:42:46;;;;;;;26.58;12.00;;;;;;;1.09;100.00;98435.00;4960837;28;20061;-77
2023/01/17 07:45:13;;;;;;;27.48;12.40;;;;;;;1.20;100.00;98437.72;4934174;29;20035;-77
2023/01/17 07:47:38;;;;;;;28.92;12.98;;;;;;;1.21;100.00;98434.03;4915246;29;20039;-77
2023/01/17 07:50:05;;;;;;;29.83;12.95;;;;;;;1.42;100.00;98436.00;4962783;28;20515;-76
2023/01/17 07:52:31;;;;;;;35.03;13.50;;;;;;;1.18;100.00;98423.53;4948097;29;20042;-76
2023/01/17 07:54:56;;;;;;;32.08;13.30;;;;;;;1.40;100.00;98435.25;4946696;28;20090;-77
2023/01/17 07:57:22;;;;;;;29.13;11.15;;;;;;;0.92;100.00;98420.19;4960532;28;20047;-77
2023/01/17 07:59:49;;;;;;;50.47;13.32;;;;;;;1.25;100.00;98430.13;4951723;29;20038;-78
2023/01/17 08:02:17;;;;;;;30.67;14.18;;;;;;;1.31;100.00;98433.31;4939809;29;20039;-78
2023/01/17 08:04:43;;;;;;;35.00;14.02;;;;;;;1.26;100.00;98434.53;4940892;29;20071;-78
2023/01/17 08:07:08;;;;;;;30.92;13.13;;;;;;;1.22;100.00;98429.50;4924734;28;20434;-78
2023/01/17 08:09:34;;;;;;;30.63;12.30;;;;;;;1.34;100.00;98435.75;4944950;29;20042;-78
2023/01/17 08:12:00;;;;;;;34.75;13.95;;;;;;;1.10;100.00;98407.94;4926355;28;20575;-77
2023/01/17 08:14:25;;;;;;;35.13;14.55;;;;;;;1.29;100.00;98431.56;4944229;29;20039;-78
2023/01/17 08:16:52;;;;;;;33.08;13.93;;;;;;;1.34;100.00;98435.75;4922398;29;20039;-77
2023/01/17 08:19:18;;;;;;;33.08;14.15;;;;;;;1.28;100.00;98424.50;4943766;29;20035;-76
2023/01/17 08:21:43;;;;;;;39.90;14.95;;;;;;;1.21;100.00;98415.16;4954633;28;20035;-76
2023/01/17 08:24:13;;;;;;;34.55;13.88;;;;;;;1.23;100.00;98429.41;4931754;28;20506;-77
2023/01/17 08:26:39;;;;;;;27.17;12.15;;;;;;;1.27;100.00;98436.22;4939912;29;20036;-77
2023/01/17 08:29:05;;;;;;;29.48;12.43;;;;;;;1.20;100.00;98432.31;4956680;28;20071;-77
2023/01/17 08:31:33;;;;;;;31.63;13.23;;;;;;;1.25;100.00;98449.00;4957453;28;20181;-77
2023/01/17 08:33:59;;;;;;;30.63;13.43;;;;;;;1.34;100.00;98449.22;4957277;28;20114;-76
2023/01/17 08:36:26;;;;;;;34.95;13.45;;;;;;;1.42;100.00;98452.16;4971409;28;20147;-78
2023/01/17 08:38:52;;;;;;;32.90;13.35;;;;;;;1.25;100.00;98445.44;4908805;29;20042;-78
2023/01/17 08:41:19;;;;;;;33.67;13.10;;;;;;;1.28;100.00;98454.13;4923512;29;20036;-76
2023/01/17 08:43:50;;;;;;;46.10;14.90;;;;;;;1.25;100.00;98450.84;4924244;29;20103;-77
2023/01/17 08:46:16;;;;;;;33.67;12.88;;;;;;;1.33;100.00;98456.47;4921699;29;20035;-78
2023/01/17 08:48:42;;;;;;;25.85;12.82;;;;;;;1.34;100.00;98458.16;4929083;28;20431;-76
2023/01/17 08:51:07;;;;;;;25.92;12.35;;;;;;;1.25;100.00;98458.91;4969986;28;20047;-78
2023/01/17 08:53:33;;;;;;;36.72;13.20;;;;;;;1.26;100.00;98463.31;4935749;28;20023;-79
2023/01/17 08:56:00;;;;;;;31.98;13.93;;;;;;;1.20;100.00;98461.97;4968857;28;20034;-76
2023/01/17 08:58:27;;;;;;;44.50;13.30;;;;;;;1.25;100.00;98472.41;4964785;28;20604;-77
2023/01/17 09:00:53;;;;;;;28.92;12.80;;;;;;;1.26;100.00;98474.09;4949438;28;20043;-77
2023/01/17 09:03:19;;;;;;;33.00;14.10;;;;;;;1.38;100.00;98469.59;4938349;29;20037;-77
2023/01/17 09:05:44;;;;;;;32.25;13.88;;;;;;;1.44;100.00;98474.47;4939638;29;20410;-77
2023/01/17 09:08:10;;;;;;;26.02;13.25;;;;;;;1.60;100.00;98474.09;4958632;28;20448;-77
2023/01/17 09:10:35;;;;;;;36.47;14.68;;;;;;;1.62;100.00;98474.81;4939745;29;20041;-77
2023/01/17 09:13:01;;;;;;;37.97;14.63;;;;;;;1.67;100.00;98479.84;4940363;28;20550;-78
2023/01/17 09:15:26;;;;;;;29.60;13.45;;;;;;;1.68;100.00;98474.34;4954031;29;20022;-77
2023/01/17 09:17:55;;;;;;;35.70;14.32;;;;;;;1.81;100.00;98480.44;4946526;29;20035;-77
2023/01/17 09:20:22;;;;;;;26.60;14.68;;;;;;;1.81;100.00;98484.97;4947177;29;20046;-77
2023/01/17 09:22:48;;;;;;;30.45;14.18;;;;;;;1.92;100.00;98482.28;4954925;28;20040;-77
2023/01/17 09:25:14;;;;;;;24.15;13.27;;;;;;;1.86;100.00;98481.91;4913495;29;20490;-77
2023/01/17 09:27:43;;;;;;;26.30;12.95;;;;;;;2.05;100.00;98487.53;4940025;29;20099;-78
2023/01/17 09:30:09;;;;;;;26.10;13.40;;;;;;;2.17;100.00;98489.19;4930487;29;20046;-77
2023/01/17 09:32:35;;;;;;;33.00;13.77;;;;;;;2.22;100.00;98491.50;4946355;28;20446;-78
2023/01/17 09:35:02;;;;;;;28.40;12.73;;;;;;;2.27;100.00;98494.69;4967838;28;20062;-78
2023/01/17 09:37:27;;;;;;;28.15;12.02;;;;;;;2.09;100.00;98482.72;4927656;28;20055;-77
2023/01/17 09:39:52;;;;;;;27.95;12.77;;;;;;;2.04;100.00;98483.09;4950689;29;20070;-78
2023/01/17 09:42:26;;;;;;;27.27;12.55;;;;;;;2.14;100.00;98483.19;4907292;29;20035;-77
2023/01/17 09:44:52;;;;;;;26.48;12.68;;;;;;;2.44;100.00;98497.81;4938638;28;20035;-78
2023/01/17 09:47:38;;;;;;;34.83;11.75;;;;;;;2.55;100.00;98501.31;4955972;28;20395;-77
2023/01/17 09:50:21;;;;;;;30.25;12.77;;;;;;;2.63;100.00;98506.09;4941665;29;20134;-77
2023/01/17 09:52:47;;;;;;;23.42;11.70;;;;;;;2.91;100.00;98501.88;4955889;29;20043;-77
2023/01/17 09:55:17;;;;;;;25.10;11.45;;;;;;;3.16;100.00;98510.59;4932702;29;20086;-76
2023/01/17 09:57:53;;;;;;;19.40;10.00;;;;;;;3.16;100.00;98505.19;4938148;29;20050;-77
2023/01/17 10:00:50;;;;;;;26.27;10.75;;;;;;;3.41;100.00;98503.91;4946718;28;20049;-77
2023/01/17 10:03:22;;;;;;;19.75;10.68;;;;;;;3.62;100.00;98498.47;4964014;28;20423;-76
2023/01/17 10:05:51;;;;;;;20.87;10.47;;;;;;;3.34;100.00;98516.25;4960558;28;20066;-76
2023/01/17 10:08:38;;;;;;;18.45;9.57;;;;;;;3.60;100.00;98508.53;4954498;29;20037;-76
2023/01/17 10:11:51;;;;;;;18.65;10.65;;;;;;;3.90;100.00;98509.50;4956251;28;20031;-75
2023/01/17 10:14:48;;;;;;;19.33;8.88;;;;;;;3.80;100.00;98509.47;4925891;29;20403;-77
2023/01/17 10:17:25;;;;;;;25.00;9.00;;;;;;;3.81;100.00;98511.19;4915298;29;20422;-77
2023/01/17 10:19:59;;;;;;;17.88;9.48;;;;;;;3.97;100.00;98515.25;4934298;29;20058;-76
2023/01/17 10:22:29;;;;;;;19.60;9.88;;;;;;;4.03;100.00;98512.84;4955616;28;20059;-77
2023/01/17 10:25:07;;;;;;;28.00;9.75;;;;;;;4.09;100.00;98511.44;4937993;29;20053;-77
2023/01/17 10:27:38;;;;;;;21.02;10.48;;;;;;;3.72;100.00;98511.16;4950276;28;20035;-77
2023/01/17 10:30:15;;;;;;;26.88;9.38;;;;;;;3.52;100.00;98512.94;4960549;28;20042;-77
2023/01/17 10:32:46;;;;;;;21.08;10.13;;;;;;;3.53;100.00;98512.78;4931638;28;20031;-76
2023/01/17 10:35:28;;;;;;;19.02;7.95;;;;;;;3.66;100.00;98512.56;4942178;28;20035;-77
2023/01/17 10:37:56;;;;;;;22.33;8.65;;;;;;;3.59;100.00;98506.84;4953528;29;20117;-76
2023/01/17 10:40:28;;;;;;;19.02;8.38;;;;;;;3.40;100.00;98513.00;4955844;28;20035;-78
2023/01/17 10:43:17;;;;;;;20.30;9.13;;;;;;;3.67;100.00;98508.84;4922533;28;20478;-77
2023/01/17 10:45:51;;;;;;;19.08;8.48;;;;;;;3.80;100.00;98509.47;4956057;28;20533;-77
2023/01/17 10:48:33;;;;;;;17.35;8.32;;;;;;;4.02;100.00;98510.28;4953909;28;20097;-77
2023/01/17 10:51:27;;;;;;;14.23;7.65;;;;;;;3.77;100.00;98496.25;4944127;28;20031;-77
2023/01/17 10:54:08;;;;;;;12.70;7.70;;;;;;;3.77;100.00;98507.06;4964420;28;20479;-77
2023/01/17 10:56:34;;;;;;;21.75;7.25;;;;;;;3.95;100.00;98511.81;4957520;28;20417;-76
2023/01/17 10:59:23;;;;;;;22.08;7.88;;;;;;;3.74;100.00;98496.50;4977809;28;20027;-77
2023/01/17 11:01:48;;;;;;;27.70;8.82;;;;;;;4.10;100.00;98505.03;4941775;28;20050;-78
2023/01/17 11:04:34;;;;;;;21.50;8.80;;;;;;;4.02;100.00;98499.44;4954635;28;20051;-76
2023/01/17 11:07:18;;;;;;;17.73;8.68;;;;;;;4.19;100.00;98490.63;4938263;29;20486;-77
2023/01/17 11:09:56;;;;;;;17.27;8.30;;;;;;;3.98;100.00;98492.59;4944726;28;20102;-77
2023/01/17 11:12:36;;;;;;;22.27;8.60;;;;;;;4.49;100.00;98505.06;4964818;28;20031;-77
2023/01/17 11:15:04;;;;;;;20.10;7.85;;;;;;;4.71;100.00;98497.69;4940983;29;20033;-77
2023/01/17 11:17:31;;;;;;;14.75;7.95;;;;;;;4.86;100.00;98493.53;4938741;29;20107;-78
2023/01/17 11:20:08;;;;;;;16.52;7.60;;;;;;;4.59;100.00;98499.66;4922495;29;20027;-77
2023/01/17 11:22:34;;;;;;;16.00;7.20;;;;;;;4.44;100.00;98491.09;4938067;29;20038;-76
2023/01/17 11:25:00;;;;;;;19.35;7.95;;;;;;;4.34;100.00;98485.66;4940405;28;20047;-77
2023/01/17 11:27:32;;;;;;;15.82;7.57;;;;;;;4.45;100.00;98490.09;4983434;28;20118;-77
2023/01/17 11:30:16;;;;;;;17.73;7.38;;;;;;;4.79;100.00;98490.53;4940867;28;20027;-77
2023/01/17 11:32:52;;;;;;;22.15;7.30;;;;;;;4.83;100.00;98488.38;4951359;28;20066;-77
2023/01/17 11:35:24;;;;;;;11.07;6.55;;;;;;;4.74;100.00;98500.13;4955955;28;20058;-77
2023/01/17 11:38:06;;;;;;;10.57;6.00;;;;;;;4.92;100.00;98492.09;4976496;28;20034;-76
2023/01/17 11:40:39;;;;;;;14.68;6.22;;;;;;;4.96;100.00;98479.97;4970272;28;20299;-78
2023/01/17 11:43:10;;;;;;;16.77;7.22;;;;;;;5.15;100.00;98484.50;4977621;28;20045;-77
2023/01/17 11:45:37;;;;;;;17.67;7.22;;;;;;;5.10;100.00;98492.19;4976781;28;20031;-76
2023/01/17 11:48:08;;;;;;;15.75;6.70;;;;;;;5.12;100.00;98485.66;4964103;28;20194;-77
2023/01/17 11:50:37;;;;;;;13.25;5.35;;;;;;;5.01;100.00;98483.09;4944527;29;20034;-77
2023/01/17 11:53:28;;;;;;;18.95;7.00;;;;;;;5.04;100.00;98487.38;4942027;29;20121;-77
2023/01/17 11:56:09;;;;;;;8.52;5.25;;;;;;;4.96;100.00;98480.81;4916989;29;20066;-77
2023/01/17 11:58:40;;;;;;;13.55;6.05;;;;;;;4.86;100.00;98473.72;4965818;28;20617;-76
2023/01/17 12:01:11;;;;;;;17.27;6.65;;;;;;;4.68;100.00;98469.00;4978299;28;20035;-77
2023/01/17 12:03:51;;;;;;;10.80;5.32;;;;;;;4.84;100.00;98471.13;4961255;28;20042;-77
2023/01/17 12:06:34;;;;;;;10.13;4.90;;;;;;;4.65;100.00;98469.28;4955565;29;20382;-76
2023/01/17 12:09:34;;;;;;;12.90;4.93;;;;;;;4.59;100.00;98480.69;4938561;29;20509;-77
2023/01/17 12:14:53;;;;;;;9.77;4.70;;;;;;;4.64;100.00;98467.59;4942742;29;20097;-76
2023/01/17 12:17:27;;;;;;;14.25;5.10;;;;;;;4.68;100.00;98473.56;4942903;28;20031;-79
2023/01/17 12:19:59;;;;;;;11.48;4.53;;;;;;;4.69;100.00;98467.13;4949904;28;20039;-76
2023/01/17 12:22:58;;;;;;;8.55;5.15;;;;;;;4.71;100.00;98463.31;4943278;29;20045;-77
2023/01/17 12:25:42;;;;;;;8.93;4.45;;;;;;;4.67;100.00;98477.28;4948814;28;20035;-77
2023/01/17 12:28:44;;;;;;;9.35;4.53;;;;;;;4.68;100.00;98465.44;4941657;29;20348;-77
2023/01/17 12:31:32;;;;;;;13.35;3.78;;;;;;;4.63;100.00;98467.72;4952858;28;20038;-76
2023/01/17 12:34:13;;;;;;;9.77;3.88;;;;;;;4.62;100.00;98466.00;4956532;28;20035;-77
2023/01/17 12:36:47;;;;;;;8.77;4.00;;;;;;;4.64;100.00;98464.00;4944022;29;20046;-76
2023/01/17 12:39:15;;;;;;;9.63;3.90;;;;;;;4.67;100.00;98461.00;4924784;29;20039;-77
2023/01/17 12:41:43;;;;;;;12.55;3.78;;;;;;;4.50;100.00;98463.44;4957092;28;20483;-76
2023/01/17 12:44:12;;;;;;;9.30;3.90;;;;;;;4.53;100.00;98465.03;4956833;28;20045;-77
2023/01/17 12:46:52;;;;;;;7.18;3.35;;;;;;;4.66;100.00;98457.47;4959870;28;20023;-77
2023/01/17 12:49:31;;;;;;;6.97;3.65;;;;;;;4.66;100.00;98462.03;4973328;28;20035;-77
2023/01/17 12:52:05;;;;;;;7.32;2.95;;;;;;;4.52;100.00;98447.88;4956453;28;20034;-76
2023/01/17 12:54:47;;;;;;;7.15;4.00;;;;;;;4.61;100.00;98448.91;4959428;28;20494;-77
2023/01/17 12:57:18;;;;;;;13.95;4.10;;;;;;;4.70;100.00;98463.44;4933959;29;20028;-77
2023/01/17 12:59:51;;;;;;;7.43;3.65;;;;;;;4.72;100.00;98448.75;4971140;28;20430;-77
2023/01/17 13:02:16;;;;;;;;;;;;;;;4.65;100.00;98455.72;4957091;28;20031;-76
2023/01/17 13:04:50;;;;;;;5.70;2.97;;;;;;;4.89;100.00;98457.16;4952842;29;19921;-77
2023/01/17 13:07:19;;;;;;;8.40;2.97;;;;;;;4.79;100.00;98458.00;4972557;28;20065;-75